sensor_id;sensor_type;location;lat;lon;timestamp;P1;durP1;ratioP1;P2;durP2;ratioP2
16320;SDS011;8269;50.990;4.494;2022-08-21T00:01:14;7.90;;;3.63;;
16320;SDS011;8269;50.990;4.494;2022-08-21T00:03:43;7.47;;;3.55;;
16320;SDS011;8269;50.990;4.494;2022-08-21T00:06:09;8.55;;;3.38;;
16320;SDS011;8269;50.990;4.494;2022-08-21T00:08:35;8.20;;;3.90;;
16320;SDS011;8269;50.990;4.494;2022-08-21T00:11:01;11.10;;;3.40;;
16320;SDS011;8269;50.990;4.494;2022-08-21T00:13:27;8.57;;;3.47;;
16320;SDS011;8269;50.990;4.494;2022-08-21T00:15:53;8.00;;;3.60;;
16320;SDS011;8269;50.990;4.494;2022-08-21T00:18:19;9.45;;;3.63;;
16320;SDS011;8269;50.990;4.494;2022-08-21T00:20:45;6.97;;;3.47;;
16320;SDS011;8269;50.990;4.494;2022-08-21T00:23:12;7.18;;;3.22;;
16320;SDS011;8269;50.990;4.494;2022-08-21T00:25:38;7.47;;;3.55;;
16320;SDS011;8269;50.990;4.494;2022-08-21T00:28:04;7.15;;;3.47;;
16320;SDS011;8269;50.990;4.494;2022-08-21T00:30:31;13.45;;;3.85;;
16320;SDS011;8269;50.990;4.494;2022-08-21T00:32:57;7.40;;;2.83;;
16320;SDS011;8269;50.990;4.494;2022-08-21T00:35:25;9.20;;;3.42;;
16320;SDS011;8269;50.990;4.494;2022-08-21T00:37:55;9.32;;;3.40;;
16320;SDS011;8269;50.990;4.494;2022-08-21T00:40:32;11.98;;;3.60;;
16320;SDS011;8269;50.990;4.494;2022-08-21T00:43:14;8.48;;;3.28;;
16320;SDS011;8269;50.990;4.494;2022-08-21T00:45:41;12.25;;;3.70;;
16320;SDS011;8269;50.990;4.494;2022-08-21T00:48:07;9.57;;;3.22;;
16320;SDS011;8269;50.990;4.494;2022-08-21T00:50:35;9.45;;;3.28;;
16320;SDS011;8269;50.990;4.494;2022-08-21T00:53:05;9.68;;;3.40;;
16320;SDS011;8269;50.990;4.494;2022-08-21T00:55:33;9.73;;;3.40;;
16320;SDS011;8269;50.990;4.494;2022-08-21T00:58:01;8.07;;;3.10;;
16320;SDS011;8269;50.990;4.494;2022-08-21T01:00:29;10.43;;;3.15;;
16320;SDS011;8269;50.990;4.494;2022-08-21T01:02:58;8.88;;;3.15;;
16320;SDS011;8269;50.990;4.494;2022-08-21T01:05:26;8.68;;;3.47;;
16320;SDS011;8269;50.990;4.494;2022-08-21T01:07:52;12.85;;;3.40;;
16320;SDS011;8269;50.990;4.494;2022-08-21T01:10:18;8.43;;;3.10;;
16320;SDS011;8269;50.990;4.494;2022-08-21T01:12:44;6.35;;;2.80;;
16320;SDS011;8269;50.990;4.494;2022-08-21T01:15:10;8.75;;;3.50;;
16320;SDS011;8269;50.990;4.494;2022-08-21T01:17:40;7.88;;;2.90;;
16320;SDS011;8269;50.990;4.494;2022-08-21T01:20:07;7.85;;;2.95;;
16320;SDS011;8269;50.990;4.494;2022-08-21T01:22:35;7.80;;;3.10;;
16320;SDS011;8269;50.990;4.494;2022-08-21T01:25:03;8.65;;;3.15;;
16320;SDS011;8269;50.990;4.494;2022-08-21T01:27:31;8.32;;;3.13;;
16320;SDS011;8269;50.990;4.494;2022-08-21T01:29:58;7.93;;;2.90;;
16320;SDS011;8269;50.990;4.494;2022-08-21T01:32:27;7.57;;;2.85;;
16320;SDS011;8269;50.990;4.494;2022-08-21T01:34:53;9.20;;;2.85;;
16320;SDS011;8269;50.990;4.494;2022-08-21T01:37:19;7.22;;;3.00;;
16320;SDS011;8269;50.990;4.494;2022-08-21T01:39:46;7.10;;;3.13;;
16320;SDS011;8269;50.990;4.494;2022-08-21T01:42:12;7.68;;;2.75;;
16320;SDS011;8269;50.990;4.494;2022-08-21T01:44:39;8.50;;;3.28;;
16320;SDS011;8269;50.990;4.494;2022-08-21T01:47:08;9.82;;;2.90;;
16320;SDS011;8269;50.990;4.494;2022-08-21T01:49:36;11.48;;;2.95;;
16320;SDS011;8269;50.990;4.494;2022-08-21T01:52:03;8.82;;;3.08;;
16320;SDS011;8269;50.990;4.494;2022-08-21T01:54:29;9.45;;;3.78;;
16320;SDS011;8269;50.990;4.494;2022-08-21T01:56:55;9.70;;;3.08;;
16320;SDS011;8269;50.990;4.494;2022-08-21T01:59:22;6.45;;;3.05;;
16320;SDS011;8269;50.990;4.494;2022-08-21T02:01:49;10.85;;;3.95;;
16320;SDS011;8269;50.990;4.494;2022-08-21T02:04:15;8.55;;;3.30;;
16320;SDS011;8269;50.990;4.494;2022-08-21T02:06:41;9.07;;;2.83;;
16320;SDS011;8269;50.990;4.494;2022-08-21T02:09:09;9.20;;;3.10;;
16320;SDS011;8269;50.990;4.494;2022-08-21T02:11:36;9.18;;;3.10;;
16320;SDS011;8269;50.990;4.494;2022-08-21T02:14:05;11.07;;;3.30;;
16320;SDS011;8269;50.990;4.494;2022-08-21T02:16:36;10.93;;;3.22;;
16320;SDS011;8269;50.990;4.494;2022-08-21T02:19:02;11.23;;;3.42;;
16320;SDS011;8269;50.990;4.494;2022-08-21T02:21:29;7.68;;;3.20;;
16320;SDS011;8269;50.990;4.494;2022-08-21T02:23:54;13.30;;;3.40;;
16320;SDS011;8269;50.990;4.494;2022-08-21T02:26:20;8.35;;;3.58;;
16320;SDS011;8269;50.990;4.494;2022-08-21T02:28:46;10.95;;;3.72;;
16320;SDS011;8269;50.990;4.494;2022-08-21T02:31:13;8.88;;;3.28;;
16320;SDS011;8269;50.990;4.494;2022-08-21T02:33:38;8.55;;;3.47;;
16320;SDS011;8269;50.990;4.494;2022-08-21T02:36:05;8.10;;;3.28;;
16320;SDS011;8269;50.990;4.494;2022-08-21T02:38:31;10.60;;;3.42;;
16320;SDS011;8269;50.990;4.494;2022-08-21T02:40:59;9.93;;;3.00;;
16320;SDS011;8269;50.990;4.494;2022-08-21T02:43:26;8.23;;;3.45;;
16320;SDS011;8269;50.990;4.494;2022-08-21T02:45:54;9.73;;;3.25;;
16320;SDS011;8269;50.990;4.494;2022-08-21T02:48:22;7.47;;;3.45;;
16320;SDS011;8269;50.990;4.494;2022-08-21T02:50:57;11.13;;;3.90;;
16320;SDS011;8269;50.990;4.494;2022-08-21T02:53:25;8.07;;;3.60;;
16320;SDS011;8269;50.990;4.494;2022-08-21T02:55:51;7.60;;;3.42;;
16320;SDS011;8269;50.990;4.494;2022-08-21T02:58:22;8.27;;;3.03;;
16320;SDS011;8269;50.990;4.494;2022-08-21T03:00:51;9.77;;;3.40;;
16320;SDS011;8269;50.990;4.494;2022-08-21T03:03:17;10.00;;;3.25;;
16320;SDS011;8269;50.990;4.494;2022-08-21T03:05:43;11.23;;;3.50;;
16320;SDS011;8269;50.990;4.494;2022-08-21T03:08:11;9.30;;;3.17;;
16320;SDS011;8269;50.990;4.494;2022-08-21T03:10:39;9.93;;;3.70;;
16320;SDS011;8269;50.990;4.494;2022-08-21T03:13:07;8.75;;;3.60;;
16320;SDS011;8269;50.990;4.494;2022-08-21T03:15:33;8.13;;;3.22;;
16320;SDS011;8269;50.990;4.494;2022-08-21T03:17:59;11.07;;;3.88;;
16320;SDS011;8269;50.990;4.494;2022-08-21T03:20:26;10.13;;;3.67;;
16320;SDS011;8269;50.990;4.494;2022-08-21T03:22:53;13.70;;;3.53;;
16320;SDS011;8269;50.990;4.494;2022-08-21T03:25:22;10.30;;;3.72;;
16320;SDS011;8269;50.990;4.494;2022-08-21T03:27:49;9.30;;;3.30;;
16320;SDS011;8269;50.990;4.494;2022-08-21T03:30:16;7.10;;;3.30;;
16320;SDS011;8269;50.990;4.494;2022-08-21T03:32:43;10.80;;;3.20;;
16320;SDS011;8269;50.990;4.494;2022-08-21T03:35:09;13.07;;;3.78;;
16320;SDS011;8269;50.990;4.494;2022-08-21T03:37:35;11.20;;;3.45;;
16320;SDS011;8269;50.990;4.494;2022-08-21T03:40:02;11.02;;;3.47;;
16320;SDS011;8269;50.990;4.494;2022-08-21T03:42:29;9.35;;;3.45;;
16320;SDS011;8269;50.990;4.494;2022-08-21T03:44:55;7.68;;;3.40;;
16320;SDS011;8269;50.990;4.494;2022-08-21T03:47:21;8.52;;;3.45;;
16320;SDS011;8269;50.990;4.494;2022-08-21T03:49:47;10.20;;;3.65;;
16320;SDS011;8269;50.990;4.494;2022-08-21T03:52:13;10.52;;;3.70;;
16320;SDS011;8269;50.990;4.494;2022-08-21T03:54:39;7.90;;;3.40;;
16320;SDS011;8269;50.990;4.494;2022-08-21T03:57:06;9.98;;;3.22;;
16320;SDS011;8269;50.990;4.494;2022-08-21T03:59:33;11.60;;;4.15;;
16320;SDS011;8269;50.990;4.494;2022-08-21T04:02:00;10.90;;;3.45;;
16320;SDS011;8269;50.990;4.494;2022-08-21T04:04:28;10.57;;;3.83;;
16320;SDS011;8269;50.990;4.494;2022-08-21T04:06:55;11.25;;;4.00;;
16320;SDS011;8269;50.990;4.494;2022-08-21T04:09:21;11.07;;;3.63;;
16320;SDS011;8269;50.990;4.494;2022-08-21T04:11:48;9.90;;;3.65;;
16320;SDS011;8269;50.990;4.494;2022-08-21T04:14:14;12.15;;;3.90;;
16320;SDS011;8269;50.990;4.494;2022-08-21T04:16:41;9.45;;;3.55;;
16320;SDS011;8269;50.990;4.494;2022-08-21T04:19:08;9.30;;;3.60;;
16320;SDS011;8269;50.990;4.494;2022-08-21T04:21:35;9.17;;;3.60;;
16320;SDS011;8269;50.990;4.494;2022-08-21T04:24:02;7.53;;;3.30;;
16320;SDS011;8269;50.990;4.494;2022-08-21T04:26:28;7.35;;;3.38;;
16320;SDS011;8269;50.990;4.494;2022-08-21T04:28:53;12.00;;;3.63;;
16320;SDS011;8269;50.990;4.494;2022-08-21T04:31:22;8.25;;;3.50;;
16320;SDS011;8269;50.990;4.494;2022-08-21T04:33:49;9.65;;;3.42;;
16320;SDS011;8269;50.990;4.494;2022-08-21T04:36:15;7.15;;;3.10;;
16320;SDS011;8269;50.990;4.494;2022-08-21T04:38:42;9.57;;;3.55;;
16320;SDS011;8269;50.990;4.494;2022-08-21T04:41:07;7.30;;;3.00;;
16320;SDS011;8269;50.990;4.494;2022-08-21T04:43:33;10.53;;;3.83;;
16320;SDS011;8269;50.990;4.494;2022-08-21T04:45:59;9.73;;;3.40;;
16320;SDS011;8269;50.990;4.494;2022-08-21T04:48:25;8.55;;;3.40;;
16320;SDS011;8269;50.990;4.494;2022-08-21T04:50:59;9.27;;;3.08;;
16320;SDS011;8269;50.990;4.494;2022-08-21T04:56:04;9.95;;;3.60;;
16320;SDS011;8269;50.990;4.494;2022-08-21T04:58:35;8.88;;;3.40;;
16320;SDS011;8269;50.990;4.494;2022-08-21T05:01:02;9.38;;;2.90;;
16320;SDS011;8269;50.990;4.494;2022-08-21T05:03:32;7.70;;;2.92;;
16320;SDS011;8269;50.990;4.494;2022-08-21T05:05:59;8.97;;;3.00;;
16320;SDS011;8269;50.990;4.494;2022-08-21T05:08:28;8.88;;;3.20;;
16320;SDS011;8269;50.990;4.494;2022-08-21T05:10:54;10.10;;;3.05;;
16320;SDS011;8269;50.990;4.494;2022-08-21T05:13:20;8.85;;;3.20;;
16320;SDS011;8269;50.990;4.494;2022-08-21T05:15:45;9.75;;;3.75;;
16320;SDS011;8269;50.990;4.494;2022-08-21T05:18:11;11.00;;;3.20;;
16320;SDS011;8269;50.990;4.494;2022-08-21T05:20:37;8.85;;;3.30;;
16320;SDS011;8269;50.990;4.494;2022-08-21T05:23:09;9.55;;;3.30;;
16320;SDS011;8269;50.990;4.494;2022-08-21T05:25:36;7.05;;;2.95;;
16320;SDS011;8269;50.990;4.494;2022-08-21T05:28:02;8.50;;;3.85;;
16320;SDS011;8269;50.990;4.494;2022-08-21T05:30:29;6.57;;;2.92;;
16320;SDS011;8269;50.990;4.494;2022-08-21T05:32:55;10.32;;;3.55;;
16320;SDS011;8269;50.990;4.494;2022-08-21T05:35:23;8.60;;;3.20;;
16320;SDS011;8269;50.990;4.494;2022-08-21T05:37:49;7.32;;;2.88;;
16320;SDS011;8269;50.990;4.494;2022-08-21T05:40:18;8.50;;;2.72;;
16320;SDS011;8269;50.990;4.494;2022-08-21T05:42:44;8.85;;;2.72;;
16320;SDS011;8269;50.990;4.494;2022-08-21T05:45:10;7.68;;;2.70;;
16320;SDS011;8269;50.990;4.494;2022-08-21T05:47:36;8.05;;;2.67;;
16320;SDS011;8269;50.990;4.494;2022-08-21T05:50:02;5.97;;;2.65;;
16320;SDS011;8269;50.990;4.494;2022-08-21T05:52:28;8.15;;;2.67;;
16320;SDS011;8269;50.990;4.494;2022-08-21T05:54:54;8.23;;;2.88;;
16320;SDS011;8269;50.990;4.494;2022-08-21T05:57:20;6.95;;;2.53;;
16320;SDS011;8269;50.990;4.494;2022-08-21T05:59:46;8.68;;;2.70;;
16320;SDS011;8269;50.990;4.494;2022-08-21T06:02:12;8.05;;;3.30;;
16320;SDS011;8269;50.990;4.494;2022-08-21T06:04:38;8.15;;;2.55;;
16320;SDS011;8269;50.990;4.494;2022-08-21T06:07:05;9.52;;;2.78;;
16320;SDS011;8269;50.990;4.494;2022-08-21T06:09:32;5.80;;;2.30;;
16320;SDS011;8269;50.990;4.494;2022-08-21T06:11:58;7.05;;;2.40;;
16320;SDS011;8269;50.990;4.494;2022-08-21T06:14:27;9.02;;;2.63;;
16320;SDS011;8269;50.990;4.494;2022-08-21T06:16:53;8.90;;;2.70;;
16320;SDS011;8269;50.990;4.494;2022-08-21T06:19:18;6.18;;;2.30;;
16320;SDS011;8269;50.990;4.494;2022-08-21T06:21:44;7.43;;;2.75;;
16320;SDS011;8269;50.990;4.494;2022-08-21T06:24:09;8.88;;;2.47;;
16320;SDS011;8269;50.990;4.494;2022-08-21T06:26:35;7.65;;;2.60;;
16320;SDS011;8269;50.990;4.494;2022-08-21T06:29:02;8.20;;;2.60;;
16320;SDS011;8269;50.990;4.494;2022-08-21T06:31:28;9.25;;;2.67;;
16320;SDS011;8269;50.990;4.494;2022-08-21T06:33:53;9.27;;;2.40;;
16320;SDS011;8269;50.990;4.494;2022-08-21T06:36:20;10.43;;;2.42;;
16320;SDS011;8269;50.990;4.494;2022-08-21T06:38:46;5.47;;;1.92;;
16320;SDS011;8269;50.990;4.494;2022-08-21T06:41:12;7.75;;;2.20;;
16320;SDS011;8269;50.990;4.494;2022-08-21T06:43:39;7.72;;;2.30;;
16320;SDS011;8269;50.990;4.494;2022-08-21T06:46:04;10.07;;;2.20;;
16320;SDS011;8269;50.990;4.494;2022-08-21T06:48:30;9.15;;;2.25;;
16320;SDS011;8269;50.990;4.494;2022-08-21T06:50:58;8.75;;;2.30;;
16320;SDS011;8269;50.990;4.494;2022-08-21T06:53:25;7.97;;;2.10;;
16320;SDS011;8269;50.990;4.494;2022-08-21T06:55:51;8.23;;;2.17;;
16320;SDS011;8269;50.990;4.494;2022-08-21T06:58:17;9.10;;;2.50;;
16320;SDS011;8269;50.990;4.494;2022-08-21T07:00:46;8.07;;;2.35;;
16320;SDS011;8269;50.990;4.494;2022-08-21T07:03:21;10.77;;;2.30;;
16320;SDS011;8269;50.990;4.494;2022-08-21T07:05:49;8.02;;;2.35;;
16320;SDS011;8269;50.990;4.494;2022-08-21T07:08:15;9.25;;;2.50;;
16320;SDS011;8269;50.990;4.494;2022-08-21T07:10:41;8.75;;;2.78;;
16320;SDS011;8269;50.990;4.494;2022-08-21T07:13:07;8.57;;;2.25;;
16320;SDS011;8269;50.990;4.494;2022-08-21T07:15:33;8.50;;;2.47;;
16320;SDS011;8269;50.990;4.494;2022-08-21T07:17:59;9.50;;;2.67;;
16320;SDS011;8269;50.990;4.494;2022-08-21T07:20:26;8.40;;;2.47;;
16320;SDS011;8269;50.990;4.494;2022-08-21T07:22:53;8.60;;;2.42;;
16320;SDS011;8269;50.990;4.494;2022-08-21T07:25:19;7.10;;;2.20;;
16320;SDS011;8269;50.990;4.494;2022-08-21T07:27:45;6.95;;;2.17;;
16320;SDS011;8269;50.990;4.494;2022-08-21T07:30:11;7.53;;;1.85;;
16320;SDS011;8269;50.990;4.494;2022-08-21T07:32:36;9.70;;;2.47;;
16320;SDS011;8269;50.990;4.494;2022-08-21T07:35:02;7.90;;;2.25;;
16320;SDS011;8269;50.990;4.494;2022-08-21T07:37:28;10.35;;;2.67;;
16320;SDS011;8269;50.990;4.494;2022-08-21T07:39:54;9.60;;;2.40;;
16320;SDS011;8269;50.990;4.494;2022-08-21T07:42:20;8.77;;;2.45;;
16320;SDS011;8269;50.990;4.494;2022-08-21T07:44:45;7.15;;;2.20;;
16320;SDS011;8269;50.990;4.494;2022-08-21T07:47:11;9.52;;;2.38;;
16320;SDS011;8269;50.990;4.494;2022-08-21T07:49:37;9.02;;;2.53;;
16320;SDS011;8269;50.990;4.494;2022-08-21T07:52:03;7.85;;;2.30;;
16320;SDS011;8269;50.990;4.494;2022-08-21T07:54:29;8.85;;;2.10;;
16320;SDS011;8269;50.990;4.494;2022-08-21T07:56:55;10.15;;;2.40;;
16320;SDS011;8269;50.990;4.494;2022-08-21T07:59:21;8.07;;;2.25;;
16320;SDS011;8269;50.990;4.494;2022-08-21T08:01:46;7.60;;;2.40;;
16320;SDS011;8269;50.990;4.494;2022-08-21T08:04:12;8.02;;;2.25;;
16320;SDS011;8269;50.990;4.494;2022-08-21T08:06:40;6.90;;;2.13;;
16320;SDS011;8269;50.990;4.494;2022-08-21T08:09:06;4.82;;;1.70;;
16320;SDS011;8269;50.990;4.494;2022-08-21T08:11:32;9.02;;;2.28;;
16320;SDS011;8269;50.990;4.494;2022-08-21T08:13:58;11.57;;;2.60;;
16320;SDS011;8269;50.990;4.494;2022-08-21T08:16:24;9.57;;;2.47;;
16320;SDS011;8269;50.990;4.494;2022-08-21T08:18:51;7.43;;;2.38;;
16320;SDS011;8269;50.990;4.494;2022-08-21T08:21:17;9.82;;;2.72;;
16320;SDS011;8269;50.990;4.494;2022-08-21T08:23:45;8.25;;;2.58;;
16320;SDS011;8269;50.990;4.494;2022-08-21T08:26:11;9.18;;;2.45;;
16320;SDS011;8269;50.990;4.494;2022-08-21T08:28:37;7.22;;;2.08;;
16320;SDS011;8269;50.990;4.494;2022-08-21T08:31:03;7.68;;;2.15;;
16320;SDS011;8269;50.990;4.494;2022-08-21T08:33:29;8.60;;;2.28;;
16320;SDS011;8269;50.990;4.494;2022-08-21T08:35:55;9.82;;;2.17;;
16320;SDS011;8269;50.990;4.494;2022-08-21T08:38:22;10.95;;;2.30;;
16320;SDS011;8269;50.990;4.494;2022-08-21T08:40:54;9.70;;;2.60;;
16320;SDS011;8269;50.990;4.494;2022-08-21T08:43:31;10.10;;;2.40;;
16320;SDS011;8269;50.990;4.494;2022-08-21T08:46:01;6.88;;;2.38;;
16320;SDS011;8269;50.990;4.494;2022-08-21T08:48:41;8.30;;;2.40;;
16320;SDS011;8269;50.990;4.494;2022-08-21T08:51:33;9.32;;;2.55;;
16320;SDS011;8269;50.990;4.494;2022-08-21T08:54:12;8.57;;;2.40;;
16320;SDS011;8269;50.990;4.494;2022-08-21T08:56:46;8.23;;;1.85;;
16320;SDS011;8269;50.990;4.494;2022-08-21T08:59:19;6.93;;;2.08;;
16320;SDS011;8269;50.990;4.494;2022-08-21T09:01:49;8.00;;;2.45;;
16320;SDS011;8269;50.990;4.494;2022-08-21T09:04:18;9.93;;;2.40;;
16320;SDS011;8269;50.990;4.494;2022-08-21T09:16:27;7.90;;;2.10;;
16320;SDS011;8269;50.990;4.494;2022-08-21T09:18:54;9.57;;;2.05;;
16320;SDS011;8269;50.990;4.494;2022-08-21T09:22:13;8.90;;;2.30;;
16320;SDS011;8269;50.990;4.494;2022-08-21T09:25:03;6.97;;;1.95;;
16320;SDS011;8269;50.990;4.494;2022-08-21T09:27:45;9.02;;;2.20;;
16320;SDS011;8269;50.990;4.494;2022-08-21T09:30:16;9.32;;;2.45;;
16320;SDS011;8269;50.990;4.494;2022-08-21T09:32:44;8.13;;;2.25;;
16320;SDS011;8269;50.990;4.494;2022-08-21T09:35:14;8.20;;;2.20;;
16320;SDS011;8269;50.990;4.494;2022-08-21T09:37:56;7.55;;;2.05;;
16320;SDS011;8269;50.990;4.494;2022-08-21T09:45:42;10.20;;;2.28;;
16320;SDS011;8269;50.990;4.494;2022-08-21T09:48:23;6.90;;;1.90;;
16320;SDS011;8269;50.990;4.494;2022-08-21T09:50:50;7.03;;;1.95;;
16320;SDS011;8269;50.990;4.494;2022-08-21T09:55:57;6.75;;;2.00;;
16320;SDS011;8269;50.990;4.494;2022-08-21T09:59:11;7.75;;;2.20;;
16320;SDS011;8269;50.990;4.494;2022-08-21T10:01:45;6.53;;;2.25;;
16320;SDS011;8269;50.990;4.494;2022-08-21T10:04:13;9.57;;;2.35;;
16320;SDS011;8269;50.990;4.494;2022-08-21T10:06:40;9.15;;;2.30;;
16320;SDS011;8269;50.990;4.494;2022-08-21T10:09:14;8.82;;;2.45;;
16320;SDS011;8269;50.990;4.494;2022-08-21T10:12:28;6.93;;;2.28;;
16320;SDS011;8269;50.990;4.494;2022-08-21T10:17:31;10.48;;;2.42;;
16320;SDS011;8269;50.990;4.494;2022-08-21T10:20:22;10.40;;;2.58;;
16320;SDS011;8269;50.990;4.494;2022-08-21T10:23:03;9.57;;;2.35;;
16320;SDS011;8269;50.990;4.494;2022-08-21T10:25:52;11.85;;;2.60;;
16320;SDS011;8269;50.990;4.494;2022-08-21T10:28:32;8.35;;;2.10;;
16320;SDS011;8269;50.990;4.494;2022-08-21T10:33:41;10.63;;;2.45;;
16320;SDS011;8269;50.990;4.494;2022-08-21T10:41:54;7.43;;;2.20;;
16320;SDS011;8269;50.990;4.494;2022-08-21T10:44:52;8.10;;;2.35;;
16320;SDS011;8269;50.990;4.494;2022-08-21T10:55:48;10.30;;;2.78;;
16320;SDS011;8269;50.990;4.494;2022-08-21T10:58:25;9.55;;;2.72;;
16320;SDS011;8269;50.990;4.494;2022-08-21T11:01:16;9.38;;;3.08;;
16320;SDS011;8269;50.990;4.494;2022-08-21T11:03:51;11.07;;;2.78;;
16320;SDS011;8269;50.990;4.494;2022-08-21T11:06:24;11.05;;;2.80;;
16320;SDS011;8269;50.990;4.494;2022-08-21T11:08:53;12.13;;;2.90;;
16320;SDS011;8269;50.990;4.494;2022-08-21T11:14:11;9.80;;;2.90;;
16320;SDS011;8269;50.990;4.494;2022-08-21T11:16:52;9.05;;;2.80;;
16320;SDS011;8269;50.990;4.494;2022-08-21T11:19:30;9.15;;;2.70;;
16320;SDS011;8269;50.990;4.494;2022-08-21T11:24:43;10.50;;;2.40;;
16320;SDS011;8269;50.990;4.494;2022-08-21T11:30:08;11.30;;;2.67;;
16320;SDS011;8269;50.990;4.494;2022-08-21T11:32:45;9.30;;;2.80;;
16320;SDS011;8269;50.990;4.494;2022-08-21T11:38:33;14.75;;;3.10;;
16320;SDS011;8269;50.990;4.494;2022-08-21T11:46:52;10.00;;;2.78;;
16320;SDS011;8269;50.990;4.494;2022-08-21T11:49:53;11.25;;;2.70;;
16320;SDS011;8269;50.990;4.494;2022-08-21T11:52:25;13.15;;;2.78;;
16320;SDS011;8269;50.990;4.494;2022-08-21T11:57:48;8.30;;;2.47;;
16320;SDS011;8269;50.990;4.494;2022-08-21T12:00:24;9.10;;;2.55;;
16320;SDS011;8269;50.990;4.494;2022-08-21T12:02:56;10.13;;;2.53;;
16320;SDS011;8269;50.990;4.494;2022-08-21T12:05:36;9.50;;;2.53;;
16320;SDS011;8269;50.990;4.494;2022-08-21T12:08:09;10.68;;;2.47;;
16320;SDS011;8269;50.990;4.494;2022-08-21T12:11:04;10.52;;;2.85;;
16320;SDS011;8269;50.990;4.494;2022-08-21T12:13:31;7.85;;;2.53;;
16320;SDS011;8269;50.990;4.494;2022-08-21T12:16:09;8.00;;;2.15;;
16320;SDS011;8269;50.990;4.494;2022-08-21T12:18:41;11.32;;;2.72;;
16320;SDS011;8269;50.990;4.494;2022-08-21T12:21:19;12.05;;;2.90;;
16320;SDS011;8269;50.990;4.494;2022-08-21T12:24:00;9.25;;;2.67;;
16320;SDS011;8269;50.990;4.494;2022-08-21T12:26:30;10.90;;;2.55;;
16320;SDS011;8269;50.990;4.494;2022-08-21T12:29:04;9.25;;;2.72;;
16320;SDS011;8269;50.990;4.494;2022-08-21T12:32:04;8.68;;;2.67;;
16320;SDS011;8269;50.990;4.494;2022-08-21T12:34:53;8.30;;;2.25;;
16320;SDS011;8269;50.990;4.494;2022-08-21T12:40:00;9.60;;;2.47;;
16320;SDS011;8269;50.990;4.494;2022-08-21T12:42:38;11.88;;;3.00;;
16320;SDS011;8269;50.990;4.494;2022-08-21T12:45:15;10.82;;;3.00;;
16320;SDS011;8269;50.990;4.494;2022-08-21T12:50:38;7.47;;;2.20;;
16320;SDS011;8269;50.990;4.494;2022-08-21T12:56:11;10.07;;;2.78;;
16320;SDS011;8269;50.990;4.494;2022-08-21T12:59:01;9.30;;;2.75;;
16320;SDS011;8269;50.990;4.494;2022-08-21T13:04:07;10.10;;;2.65;;
16320;SDS011;8269;50.990;4.494;2022-08-21T13:06:39;9.00;;;2.75;;
16320;SDS011;8269;50.990;4.494;2022-08-21T13:09:10;8.85;;;2.45;;
16320;SDS011;8269;50.990;4.494;2022-08-21T13:11:39;8.98;;;2.75;;
16320;SDS011;8269;50.990;4.494;2022-08-21T13:14:06;7.93;;;2.55;;
16320;SDS011;8269;50.990;4.494;2022-08-21T13:17:00;11.23;;;3.20;;
16320;SDS011;8269;50.990;4.494;2022-08-21T13:19:29;10.30;;;2.72;;
16320;SDS011;8269;50.990;4.494;2022-08-21T13:21:55;8.75;;;2.83;;
16320;SDS011;8269;50.990;4.494;2022-08-21T13:24:24;10.57;;;2.88;;
16320;SDS011;8269;50.990;4.494;2022-08-21T13:27:00;8.45;;;2.55;;
16320;SDS011;8269;50.990;4.494;2022-08-21T13:29:30;10.10;;;2.83;;
16320;SDS011;8269;50.990;4.494;2022-08-21T13:32:03;13.15;;;2.45;;
16320;SDS011;8269;50.990;4.494;2022-08-21T13:34:35;8.48;;;2.70;;
16320;SDS011;8269;50.990;4.494;2022-08-21T13:37:03;9.40;;;2.40;;
16320;SDS011;8269;50.990;4.494;2022-08-21T13:39:32;13.07;;;2.42;;
16320;SDS011;8269;50.990;4.494;2022-08-21T13:42:00;9.88;;;2.65;;
16320;SDS011;8269;50.990;4.494;2022-08-21T13:46:56;11.35;;;2.95;;
16320;SDS011;8269;50.990;4.494;2022-08-21T13:49:58;12.15;;;3.05;;
16320;SDS011;8269;50.990;4.494;2022-08-21T13:52:24;12.98;;;3.03;;
16320;SDS011;8269;50.990;4.494;2022-08-21T13:54:53;9.48;;;2.97;;
16320;SDS011;8269;50.990;4.494;2022-08-21T13:57:32;8.75;;;2.55;;
16320;SDS011;8269;50.990;4.494;2022-08-21T14:00:17;10.35;;;2.58;;
16320;SDS011;8269;50.990;4.494;2022-08-21T14:02:46;12.52;;;2.80;;
16320;SDS011;8269;50.990;4.494;2022-08-21T14:05:16;11.00;;;2.70;;
16320;SDS011;8269;50.990;4.494;2022-08-21T14:08:12;9.07;;;2.42;;
16320;SDS011;8269;50.990;4.494;2022-08-21T14:10:48;10.68;;;2.83;;
16320;SDS011;8269;50.990;4.494;2022-08-21T14:16:23;10.35;;;2.65;;
16320;SDS011;8269;50.990;4.494;2022-08-21T14:18:52;10.07;;;3.00;;
16320;SDS011;8269;50.990;4.494;2022-08-21T14:21:34;8.27;;;2.42;;
16320;SDS011;8269;50.990;4.494;2022-08-21T14:24:13;8.02;;;2.55;;
16320;SDS011;8269;50.990;4.494;2022-08-21T14:26:51;8.23;;;2.35;;
16320;SDS011;8269;50.990;4.494;2022-08-21T14:29:19;8.60;;;2.58;;
16320;SDS011;8269;50.990;4.494;2022-08-21T14:31:52;9.90;;;2.42;;
16320;SDS011;8269;50.990;4.494;2022-08-21T14:34:22;9.23;;;2.30;;
16320;SDS011;8269;50.990;4.494;2022-08-21T14:36:52;9.90;;;2.75;;
16320;SDS011;8269;50.990;4.494;2022-08-21T14:39:19;9.50;;;3.03;;
16320;SDS011;8269;50.990;4.494;2022-08-21T14:41:45;10.13;;;2.47;;
16320;SDS011;8269;50.990;4.494;2022-08-21T14:44:13;8.02;;;2.35;;
16320;SDS011;8269;50.990;4.494;2022-08-21T14:46:43;8.93;;;2.33;;
16320;SDS011;8269;50.990;4.494;2022-08-21T14:49:09;7.82;;;2.40;;
16320;SDS011;8269;50.990;4.494;2022-08-21T14:51:35;8.40;;;2.50;;
16320;SDS011;8269;50.990;4.494;2022-08-21T14:54:00;6.80;;;2.30;;
16320;SDS011;8269;50.990;4.494;2022-08-21T14:56:26;9.15;;;2.47;;
16320;SDS011;8269;50.990;4.494;2022-08-21T14:58:52;10.50;;;2.70;;
16320;SDS011;8269;50.990;4.494;2022-08-21T15:01:21;9.63;;;2.70;;
16320;SDS011;8269;50.990;4.494;2022-08-21T15:03:47;9.18;;;2.55;;
16320;SDS011;8269;50.990;4.494;2022-08-21T15:06:13;8.23;;;2.72;;
16320;SDS011;8269;50.990;4.494;2022-08-21T15:08:40;9.75;;;2.45;;
16320;SDS011;8269;50.990;4.494;2022-08-21T15:11:06;10.25;;;2.67;;
16320;SDS011;8269;50.990;4.494;2022-08-21T15:13:35;8.60;;;2.42;;
16320;SDS011;8269;50.990;4.494;2022-08-21T15:16:02;8.68;;;2.70;;
16320;SDS011;8269;50.990;4.494;2022-08-21T15:18:29;9.25;;;2.70;;
16320;SDS011;8269;50.990;4.494;2022-08-21T15:20:55;8.88;;;2.40;;
16320;SDS011;8269;50.990;4.494;2022-08-21T15:23:21;11.05;;;2.95;;
16320;SDS011;8269;50.990;4.494;2022-08-21T15:25:47;11.68;;;2.60;;
16320;SDS011;8269;50.990;4.494;2022-08-21T15:28:15;11.40;;;2.80;;
16320;SDS011;8269;50.990;4.494;2022-08-21T15:30:42;9.45;;;2.80;;
16320;SDS011;8269;50.990;4.494;2022-08-21T15:33:09;9.20;;;2.55;;
16320;SDS011;8269;50.990;4.494;2022-08-21T15:35:34;8.05;;;2.80;;
16320;SDS011;8269;50.990;4.494;2022-08-21T15:38:01;9.75;;;2.55;;
16320;SDS011;8269;50.990;4.494;2022-08-21T15:40:27;9.10;;;2.88;;
16320;SDS011;8269;50.990;4.494;2022-08-21T15:42:58;9.32;;;2.75;;
16320;SDS011;8269;50.990;4.494;2022-08-21T15:45:25;10.10;;;2.80;;
16320;SDS011;8269;50.990;4.494;2022-08-21T15:47:51;11.27;;;3.13;;
16320;SDS011;8269;50.990;4.494;2022-08-21T15:50:18;10.65;;;2.78;;
16320;SDS011;8269;50.990;4.494;2022-08-21T15:52:44;11.23;;;2.75;;
16320;SDS011;8269;50.990;4.494;2022-08-21T15:55:10;10.02;;;2.90;;
16320;SDS011;8269;50.990;4.494;2022-08-21T15:57:36;9.07;;;2.72;;
16320;SDS011;8269;50.990;4.494;2022-08-21T16:00:10;8.40;;;2.58;;
16320;SDS011;8269;50.990;4.494;2022-08-21T16:02:40;10.60;;;2.75;;
16320;SDS011;8269;50.990;4.494;2022-08-21T16:05:10;9.63;;;2.40;;
16320;SDS011;8269;50.990;4.494;2022-08-21T16:07:37;10.02;;;2.45;;
16320;SDS011;8269;50.990;4.494;2022-08-21T16:10:03;7.85;;;2.45;;
16320;SDS011;8269;50.990;4.494;2022-08-21T16:12:31;10.50;;;2.78;;
16320;SDS011;8269;50.990;4.494;2022-08-21T16:14:59;12.40;;;2.92;;
16320;SDS011;8269;50.990;4.494;2022-08-21T16:17:28;8.98;;;2.90;;
16320;SDS011;8269;50.990;4.494;2022-08-21T16:19:56;7.80;;;2.60;;
16320;SDS011;8269;50.990;4.494;2022-08-21T16:22:24;11.88;;;3.33;;
16320;SDS011;8269;50.990;4.494;2022-08-21T16:24:50;10.23;;;3.35;;
16320;SDS011;8269;50.990;4.494;2022-08-21T16:27:16;9.52;;;3.38;;
16320;SDS011;8269;50.990;4.494;2022-08-21T16:29:42;9.57;;;2.78;;